METAR Data
IDs: Format: Raw Decoded Include TAF

Data at: 2245 UTC 19 Apr 2021

KAEL 192235Z AUTO 34011G16KT 10SM BKN055 04/M09 A3001 RMK AO2
KAEL 192215Z AUTO 32008G17KT 10SM BKN055 04/M09 A3001 RMK AO2
KAEL 192155Z AUTO 34011G19KT 10SM BKN055 04/M08 A3000 RMK AO2
KAEL 192135Z AUTO 33010G19KT 10SM SCT055 04/M08 A3000 RMK AO2
KAEL 192115Z AUTO 34010G21KT 10SM SCT049 04/M08 A2999 RMK AO2
KAEL 192055Z AUTO 35012G20KT 10SM BKN049 05/M08 A2999 RMK AO2
KAEL 192035Z AUTO 31010G18KT 10SM SCT049 05/M07 A3000 RMK AO2
KAEL 192015Z AUTO 32011G20KT 290V350 10SM BKN047 03/M08 A3000 RMK AO2
KAEL 191955Z AUTO 34014G18KT 10SM BKN045 03/M08 A3000 RMK AO2
KAEL 191935Z AUTO 32013G17KT 10SM OVC045 04/M07 A2999 RMK AO2
KAEL 191915Z AUTO 31013G19KT 10SM OVC043 03/M07 A2999 RMK AO2
KAEL 191855Z AUTO 33010G21KT 300V360 10SM OVC041 02/M07 A3000 RMK AO2
KAEL 191835Z AUTO 33009G20KT 10SM OVC041 02/M07 A3000 RMK AO2
KAEL 191815Z AUTO 31014G20KT 10SM OVC041 02/M07 A3000 RMK AO2
KAEL 191755Z AUTO 34013G19KT 10SM OVC039 02/M07 A3000 RMK AO2
KAEL 191735Z AUTO 32012G18KT 10SM OVC037 02/M07 A3001 RMK AO2
KAEL 191715Z AUTO 33014G17KT 280V350 10SM OVC037 01/M07 A3000 RMK AO2
KAEL 191655Z AUTO 33012G20KT 10SM OVC037 01/M06 A3000 RMK AO2
KAEL 191635Z AUTO 31012G19KT 10SM OVC037 01/M07 A3000 RMK AO2
KAEL 191615Z AUTO 33012G18KT 10SM OVC037 01/M07 A3000 RMK AO2
KAEL 191555Z AUTO 33012G19KT 10SM OVC035 01/M07 A3000 RMK AO2
KAEL 191535Z AUTO 31011G17KT 10SM OVC035 01/M06 A2999 RMK AO2
KAEL 191515Z AUTO 31010G16KT 280V340 10SM OVC035 01/M06 A3000 RMK AO2
KAEL 191455Z AUTO 31011G18KT 10SM BKN033 OVC040 01/M06 A2999 RMK AO2
KAEL 191435Z AUTO 32012G17KT 10SM SCT029 OVC038 00/M06 A2999 RMK AO2
KAEL 191415Z AUTO 31010G18KT 10SM SCT029 OVC038 00/M06 A2999 RMK AO2
KAEL 191355Z AUTO 31012G16KT 10SM OVC036 M01/M06 A2999 RMK AO2
KAEL 191335Z AUTO 31011G15KT 10SM BKN029 OVC035 M01/M06 A2998 RMK AO2
KAEL 191315Z AUTO 33010G18KT 10SM OVC029 M01/M06 A2998 RMK AO2
KAEL 191255Z AUTO 31009G19KT 10SM OVC029 M01/M05 A2998 RMK AO2
KAEL 191235Z AUTO 32011G21KT 10SM SCT026 OVC031 M01/M04 A2997 RMK AO2
KAEL 191215Z AUTO 32011G19KT 10SM SCT024 OVC031 00/M04 A2996 RMK AO2
KAEL 191155Z AUTO 31012G18KT 10SM OVC029 00/M04 A2995 RMK AO2
KAEL 191135Z AUTO 32012G18KT 10SM BKN031 OVC037 00/M04 A2994 RMK AO2
KAEL 191115Z AUTO 31010G15KT 10SM OVC037 00/M03 A2993 RMK AO2
KAEL 191055Z AUTO 31008G17KT 10SM OVC037 00/M03 A2993 RMK AO2
KAEL 191035Z AUTO 32010G21KT 10SM OVC037 01/M03 A2993 RMK AO2
KAEL 191015Z AUTO 32010G18KT 10SM OVC037 01/M03 A2993 RMK AO2
KAEL 190955Z AUTO 31011G17KT 270V330 10SM OVC035 01/M02 A2993 RMK AO2
KAEL 190935Z AUTO 31011G16KT 10SM SCT021 OVC036 01/M02 A2992 RMK AO2
KAEL 190915Z AUTO 31008G17KT 270V340 10SM SCT025 BKN034 02/M02 A2992 RMK AO2
KAEL 190855Z AUTO 31010G16KT 10SM BKN025 02/M02 A2991 RMK AO2
KAEL 190835Z AUTO 30008KT 250V320 10SM BKN023 BKN039 02/M01 A2990 RMK AO2
KAEL 190815Z AUTO 32009G14KT 10SM SCT041 02/M01 A2990 RMK AO2
KAEL 190755Z AUTO 33010G16KT 10SM BKN041 03/M01 A2989 RMK AO2
KAEL 190735Z AUTO 32013G19KT 10SM OVC039 03/00 A2990 RMK AO2
KAEL 190715Z AUTO 32011G16KT 10SM SCT019 BKN033 OVC038 04/01 A2990 RMK AO2
KAEL 190655Z AUTO 32009G19KT 10SM SCT022 OVC029 04/01 A2990 RMK AO2
KAEL 190635Z AUTO 33009G16KT 10SM OVC031 04/M01 A2989 RMK AO2
KAEL 190615Z AUTO 34009G15KT 10SM OVC035 05/M01 A2989 RMK AO2
KAEL 190555Z AUTO 34008KT 10SM BKN029 OVC035 05/M01 A2989 RMK AO2
KAEL 190535Z AUTO 34011G16KT 10SM BKN025 OVC035 06/01 A2988 RMK AO2
KAEL 190515Z AUTO 32010G17KT 10SM OVC025 06/02 A2988 RMK AO2
KAEL 190455Z AUTO 32010G15KT 10SM BKN026 BKN034 OVC080 06/02 A2988 RMK AO2